sensor_id;sensor_type;location;lat;lon;timestamp;temperature;humidity
6256;DHT22;3161;48.794;9.784;2022-12-07T00:01:35;4.50;99.90
6256;DHT22;3161;48.794;9.784;2022-12-07T00:04:05;4.50;99.90
6256;DHT22;3161;48.794;9.784;2022-12-07T00:06:41;4.50;99.90
6256;DHT22;3161;48.794;9.784;2022-12-07T00:09:14;4.50;99.90
6256;DHT22;3161;48.794;9.784;2022-12-07T00:11:43;4.50;99.90
6256;DHT22;3161;48.794;9.784;2022-12-07T00:14:13;4.50;99.90
6256;DHT22;3161;48.794;9.784;2022-12-07T00:16:42;4.50;99.90
6256;DHT22;3161;48.794;9.784;2022-12-07T00:19:11;4.50;99.90
6256;DHT22;3161;48.794;9.784;2022-12-07T00:21:39;4.50;99.90
6256;DHT22;3161;48.794;9.784;2022-12-07T00:24:07;4.50;99.90
6256;DHT22;3161;48.794;9.784;2022-12-07T00:26:37;4.50;99.90
6256;DHT22;3161;48.794;9.784;2022-12-07T00:29:08;4.60;99.90
6256;DHT22;3161;48.794;9.784;2022-12-07T00:31:37;4.50;99.90
6256;DHT22;3161;48.794;9.784;2022-12-07T00:34:13;4.50;99.90
6256;DHT22;3161;48.794;9.784;2022-12-07T00:36:41;4.60;99.90
6256;DHT22;3161;48.794;9.784;2022-12-07T00:39:09;4.50;99.90
6256;DHT22;3161;48.794;9.784;2022-12-07T00:41:36;4.50;99.90
6256;DHT22;3161;48.794;9.784;2022-12-07T00:44:04;4.60;99.90
6256;DHT22;3161;48.794;9.784;2022-12-07T00:46:31;4.60;99.90
6256;DHT22;3161;48.794;9.784;2022-12-07T00:48:59;4.60;99.90
6256;DHT22;3161;48.794;9.784;2022-12-07T00:51:27;4.60;99.90
6256;DHT22;3161;48.794;9.784;2022-12-07T00:53:54;4.60;99.90
6256;DHT22;3161;48.794;9.784;2022-12-07T00:56:24;4.60;99.90
6256;DHT22;3161;48.794;9.784;2022-12-07T00:58:57;4.60;99.90
6256;DHT22;3161;48.794;9.784;2022-12-07T01:01:27;4.60;99.90
6256;DHT22;3161;48.794;9.784;2022-12-07T01:03:55;4.60;99.90
6256;DHT22;3161;48.794;9.784;2022-12-07T01:06:24;4.60;99.90
6256;DHT22;3161;48.794;9.784;2022-12-07T01:08:52;4.60;99.90
6256;DHT22;3161;48.794;9.784;2022-12-07T01:11:23;4.60;99.90
6256;DHT22;3161;48.794;9.784;2022-12-07T01:13:53;4.70;99.90
6256;DHT22;3161;48.794;9.784;2022-12-07T01:16:22;4.70;99.90
6256;DHT22;3161;48.794;9.784;2022-12-07T01:18:52;4.70;99.90
6256;DHT22;3161;48.794;9.784;2022-12-07T01:21:26;4.70;99.90
6256;DHT22;3161;48.794;9.784;2022-12-07T01:23:51;4.70;99.90
6256;DHT22;3161;48.794;9.784;2022-12-07T01:26:22;4.70;99.90
6256;DHT22;3161;48.794;9.784;2022-12-07T01:28:50;4.70;99.90
6256;DHT22;3161;48.794;9.784;2022-12-07T01:31:22;4.70;99.90
6256;DHT22;3161;48.794;9.784;2022-12-07T01:33:55;4.70;99.90
6256;DHT22;3161;48.794;9.784;2022-12-07T01:36:31;4.70;99.90
6256;DHT22;3161;48.794;9.784;2022-12-07T01:39:02;4.60;99.90
6256;DHT22;3161;48.794;9.784;2022-12-07T01:41:32;4.60;99.90
6256;DHT22;3161;48.794;9.784;2022-12-07T01:46:57;4.60;99.90
6256;DHT22;3161;48.794;9.784;2022-12-07T01:49:37;4.60;99.90
6256;DHT22;3161;48.794;9.784;2022-12-07T01:52:16;4.60;99.90
6256;DHT22;3161;48.794;9.784;2022-12-07T01:54:45;4.60;99.90
6256;DHT22;3161;48.794;9.784;2022-12-07T01:57:15;4.60;99.90
6256;DHT22;3161;48.794;9.784;2022-12-07T01:59:45;4.60;99.90
6256;DHT22;3161;48.794;9.784;2022-12-07T02:02:20;4.50;99.90
6256;DHT22;3161;48.794;9.784;2022-12-07T02:04:48;4.60;99.90
6256;DHT22;3161;48.794;9.784;2022-12-07T02:07:16;4.50;99.90
6256;DHT22;3161;48.794;9.784;2022-12-07T02:09:44;4.50;99.90
6256;DHT22;3161;48.794;9.784;2022-12-07T02:12:12;4.50;99.90
6256;DHT22;3161;48.794;9.784;2022-12-07T02:14:39;4.50;99.90
6256;DHT22;3161;48.794;9.784;2022-12-07T02:17:37;4.50;99.90
6256;DHT22;3161;48.794;9.784;2022-12-07T02:20:17;4.50;99.90
6256;DHT22;3161;48.794;9.784;2022-12-07T02:23:03;4.50;99.90
6256;DHT22;3161;48.794;9.784;2022-12-07T02:25:55;4.40;99.90
6256;DHT22;3161;48.794;9.784;2022-12-07T02:28:34;4.00;99.90
6256;DHT22;3161;48.794;9.784;2022-12-07T02:31:10;4.40;99.90
6256;DHT22;3161;48.794;9.784;2022-12-07T02:33:42;4.40;99.90
6256;DHT22;3161;48.794;9.784;2022-12-07T02:36:17;4.30;99.90
6256;DHT22;3161;48.794;9.784;2022-12-07T02:38:53;4.30;99.90
6256;DHT22;3161;48.794;9.784;2022-12-07T02:41:25;4.30;99.90
6256;DHT22;3161;48.794;9.784;2022-12-07T02:43:56;4.30;99.90
6256;DHT22;3161;48.794;9.784;2022-12-07T02:46:27;4.30;99.90
6256;DHT22;3161;48.794;9.784;2022-12-07T02:48:55;4.30;99.90
6256;DHT22;3161;48.794;9.784;2022-12-07T02:51:25;4.30;99.90
6256;DHT22;3161;48.794;9.784;2022-12-07T02:53:52;4.30;99.90
6256;DHT22;3161;48.794;9.784;2022-12-07T02:59:29;4.30;99.90
6256;DHT22;3161;48.794;9.784;2022-12-07T03:10:40;4.20;99.90
6256;DHT22;3161;48.794;9.784;2022-12-07T03:16:08;4.10;99.90
6256;DHT22;3161;48.794;9.784;2022-12-07T03:18:37;4.10;99.90
6256;DHT22;3161;48.794;9.784;2022-12-07T03:21:08;4.00;99.90
6256;DHT22;3161;48.794;9.784;2022-12-07T03:23:36;4.00;99.90
6256;DHT22;3161;48.794;9.784;2022-12-07T03:26:05;3.90;99.90
6256;DHT22;3161;48.794;9.784;2022-12-07T03:28:36;3.90;99.90
6256;DHT22;3161;48.794;9.784;2022-12-07T03:39:29;3.90;99.90
6256;DHT22;3161;48.794;9.784;2022-12-07T03:41:57;3.80;99.90
6256;DHT22;3161;48.794;9.784;2022-12-07T03:44:26;3.80;99.90
6256;DHT22;3161;48.794;9.784;2022-12-07T03:47:06;3.90;99.90
6256;DHT22;3161;48.794;9.784;2022-12-07T03:49:43;3.90;99.90
6256;DHT22;3161;48.794;9.784;2022-12-07T03:52:30;3.90;99.90
6256;DHT22;3161;48.794;9.784;2022-12-07T03:54:59;3.90;99.90
6256;DHT22;3161;48.794;9.784;2022-12-07T03:57:25;3.90;99.90
6256;DHT22;3161;48.794;9.784;2022-12-07T03:59:55;3.90;99.90
6256;DHT22;3161;48.794;9.784;2022-12-07T04:02:24;3.90;99.90
6256;DHT22;3161;48.794;9.784;2022-12-07T04:04:54;3.90;99.90
6256;DHT22;3161;48.794;9.784;2022-12-07T04:07:21;3.90;99.90
6256;DHT22;3161;48.794;9.784;2022-12-07T04:09:49;3.80;99.90
6256;DHT22;3161;48.794;9.784;2022-12-07T04:12:17;3.80;99.90
6256;DHT22;3161;48.794;9.784;2022-12-07T04:14:44;3.70;99.90
6256;DHT22;3161;48.794;9.784;2022-12-07T04:17:12;3.70;99.90
6256;DHT22;3161;48.794;9.784;2022-12-07T04:19:39;3.70;99.90
6256;DHT22;3161;48.794;9.784;2022-12-07T04:22:07;3.70;99.90
6256;DHT22;3161;48.794;9.784;2022-12-07T04:24:35;3.80;99.90
6256;DHT22;3161;48.794;9.784;2022-12-07T04:27:03;3.80;99.90
6256;DHT22;3161;48.794;9.784;2022-12-07T04:29:30;3.90;99.90
6256;DHT22;3161;48.794;9.784;2022-12-07T04:31:58;3.90;99.90
6256;DHT22;3161;48.794;9.784;2022-12-07T04:34:25;3.90;99.90
6256;DHT22;3161;48.794;9.784;2022-12-07T04:36:53;4.00;99.90
6256;DHT22;3161;48.794;9.784;2022-12-07T04:39:26;4.00;99.90
6256;DHT22;3161;48.794;9.784;2022-12-07T04:41:55;4.00;99.90
6256;DHT22;3161;48.794;9.784;2022-12-07T04:44:24;4.00;99.90
6256;DHT22;3161;48.794;9.784;2022-12-07T04:46:52;4.00;99.90
6256;DHT22;3161;48.794;9.784;2022-12-07T04:49:21;4.00;99.90
6256;DHT22;3161;48.794;9.784;2022-12-07T04:51:48;3.90;99.90
6256;DHT22;3161;48.794;9.784;2022-12-07T04:54:17;3.70;99.90
6256;DHT22;3161;48.794;9.784;2022-12-07T04:56:44;3.70;99.90
6256;DHT22;3161;48.794;9.784;2022-12-07T04:59:13;3.60;99.90
6256;DHT22;3161;48.794;9.784;2022-12-07T05:01:41;3.60;99.90
6256;DHT22;3161;48.794;9.784;2022-12-07T05:04:10;3.60;99.90
6256;DHT22;3161;48.794;9.784;2022-12-07T05:06:37;3.60;99.90
6256;DHT22;3161;48.794;9.784;2022-12-07T05:09:05;3.70;99.90
6256;DHT22;3161;48.794;9.784;2022-12-07T05:11:32;3.70;99.90
6256;DHT22;3161;48.794;9.784;2022-12-07T05:14:17;3.80;99.90
6256;DHT22;3161;48.794;9.784;2022-12-07T05:16:47;3.80;99.90
6256;DHT22;3161;48.794;9.784;2022-12-07T05:19:16;3.80;99.90
6256;DHT22;3161;48.794;9.784;2022-12-07T05:21:44;3.90;99.90
6256;DHT22;3161;48.794;9.784;2022-12-07T05:24:13;3.90;99.90
6256;DHT22;3161;48.794;9.784;2022-12-07T05:26:42;3.90;99.90
6256;DHT22;3161;48.794;9.784;2022-12-07T05:29:14;3.90;99.90
6256;DHT22;3161;48.794;9.784;2022-12-07T05:31:43;3.80;99.90
6256;DHT22;3161;48.794;9.784;2022-12-07T05:34:11;3.90;99.90
6256;DHT22;3161;48.794;9.784;2022-12-07T05:36:39;3.90;99.90
6256;DHT22;3161;48.794;9.784;2022-12-07T05:39:07;3.90;99.90
6256;DHT22;3161;48.794;9.784;2022-12-07T05:41:34;3.90;99.90
6256;DHT22;3161;48.794;9.784;2022-12-07T05:44:20;3.90;99.90
6256;DHT22;3161;48.794;9.784;2022-12-07T05:46:47;3.90;99.90
6256;DHT22;3161;48.794;9.784;2022-12-07T05:49:15;3.90;99.90
6256;DHT22;3161;48.794;9.784;2022-12-07T05:51:43;3.90;99.90
6256;DHT22;3161;48.794;9.784;2022-12-07T05:54:10;3.90;99.90
6256;DHT22;3161;48.794;9.784;2022-12-07T05:56:38;3.90;99.90
6256;DHT22;3161;48.794;9.784;2022-12-07T05:59:05;3.90;99.90
6256;DHT22;3161;48.794;9.784;2022-12-07T06:01:55;3.90;99.90
6256;DHT22;3161;48.794;9.784;2022-12-07T06:04:25;3.90;99.90
6256;DHT22;3161;48.794;9.784;2022-12-07T06:06:53;3.90;99.90
6256;DHT22;3161;48.794;9.784;2022-12-07T06:09:22;3.90;99.90
6256;DHT22;3161;48.794;9.784;2022-12-07T06:11:50;3.90;99.90
6256;DHT22;3161;48.794;9.784;2022-12-07T06:14:37;3.90;99.90
6256;DHT22;3161;48.794;9.784;2022-12-07T06:17:05;3.90;99.90
6256;DHT22;3161;48.794;9.784;2022-12-07T06:19:32;3.90;99.90
6256;DHT22;3161;48.794;9.784;2022-12-07T06:22:00;3.90;99.90
6256;DHT22;3161;48.794;9.784;2022-12-07T06:24:29;3.90;99.90
6256;DHT22;3161;48.794;9.784;2022-12-07T06:26:57;3.90;99.90
6256;DHT22;3161;48.794;9.784;2022-12-07T06:29:25;3.90;99.90
6256;DHT22;3161;48.794;9.784;2022-12-07T06:31:53;3.90;99.90
6256;DHT22;3161;48.794;9.784;2022-12-07T06:34:22;3.90;99.90
6256;DHT22;3161;48.794;9.784;2022-12-07T06:36:51;3.90;99.90
6256;DHT22;3161;48.794;9.784;2022-12-07T06:39:21;3.90;99.90
6256;DHT22;3161;48.794;9.784;2022-12-07T06:41:49;3.80;99.90
6256;DHT22;3161;48.794;9.784;2022-12-07T06:44:19;3.80;99.90
6256;DHT22;3161;48.794;9.784;2022-12-07T06:46:48;3.80;99.90
6256;DHT22;3161;48.794;9.784;2022-12-07T06:49:16;3.80;99.90
6256;DHT22;3161;48.794;9.784;2022-12-07T06:51:44;3.80;99.90
6256;DHT22;3161;48.794;9.784;2022-12-07T06:54:14;3.90;99.90
6256;DHT22;3161;48.794;9.784;2022-12-07T06:56:42;3.80;99.90
6256;DHT22;3161;48.794;9.784;2022-12-07T06:59:10;3.80;99.90
6256;DHT22;3161;48.794;9.784;2022-12-07T07:01:38;3.80;99.90
6256;DHT22;3161;48.794;9.784;2022-12-07T07:04:05;3.80;99.90
6256;DHT22;3161;48.794;9.784;2022-12-07T07:06:33;3.80;99.90
6256;DHT22;3161;48.794;9.784;2022-12-07T07:09:02;3.80;99.90
6256;DHT22;3161;48.794;9.784;2022-12-07T07:11:30;3.80;99.90
6256;DHT22;3161;48.794;9.784;2022-12-07T07:13:57;3.80;99.90
6256;DHT22;3161;48.794;9.784;2022-12-07T07:16:26;3.80;99.90
6256;DHT22;3161;48.794;9.784;2022-12-07T07:18:54;3.80;99.90
6256;DHT22;3161;48.794;9.784;2022-12-07T07:21:21;3.80;99.90
6256;DHT22;3161;48.794;9.784;2022-12-07T07:23:49;3.80;99.90
6256;DHT22;3161;48.794;9.784;2022-12-07T07:26:16;3.80;99.90
6256;DHT22;3161;48.794;9.784;2022-12-07T07:28:44;3.80;99.90
6256;DHT22;3161;48.794;9.784;2022-12-07T07:31:11;3.80;99.90
6256;DHT22;3161;48.794;9.784;2022-12-07T07:33:39;3.90;99.90
6256;DHT22;3161;48.794;9.784;2022-12-07T07:36:07;3.90;99.90
6256;DHT22;3161;48.794;9.784;2022-12-07T07:38:34;3.90;99.90
6256;DHT22;3161;48.794;9.784;2022-12-07T07:41:02;3.90;99.90
6256;DHT22;3161;48.794;9.784;2022-12-07T07:43:29;4.00;99.90
6256;DHT22;3161;48.794;9.784;2022-12-07T07:45:57;4.00;99.90
6256;DHT22;3161;48.794;9.784;2022-12-07T07:48:25;4.00;99.90
6256;DHT22;3161;48.794;9.784;2022-12-07T07:50:52;4.00;99.90
6256;DHT22;3161;48.794;9.784;2022-12-07T07:53:20;4.00;99.90
6256;DHT22;3161;48.794;9.784;2022-12-07T07:55:54;4.00;99.90
6256;DHT22;3161;48.794;9.784;2022-12-07T07:58:21;4.00;99.90
6256;DHT22;3161;48.794;9.784;2022-12-07T08:00:49;4.00;99.90
6256;DHT22;3161;48.794;9.784;2022-12-07T08:03:17;4.00;99.90
6256;DHT22;3161;48.794;9.784;2022-12-07T08:05:44;4.00;99.90
6256;DHT22;3161;48.794;9.784;2022-12-07T08:08:12;4.00;99.90
6256;DHT22;3161;48.794;9.784;2022-12-07T08:10:39;3.90;99.90
6256;DHT22;3161;48.794;9.784;2022-12-07T08:13:07;4.00;99.90
6256;DHT22;3161;48.794;9.784;2022-12-07T08:15:38;4.00;99.90
6256;DHT22;3161;48.794;9.784;2022-12-07T08:18:06;4.00;99.90
6256;DHT22;3161;48.794;9.784;2022-12-07T08:20:35;4.00;99.90
6256;DHT22;3161;48.794;9.784;2022-12-07T08:23:03;4.00;99.90
6256;DHT22;3161;48.794;9.784;2022-12-07T08:25:32;4.00;99.90
6256;DHT22;3161;48.794;9.784;2022-12-07T08:28:01;4.00;99.90
6256;DHT22;3161;48.794;9.784;2022-12-07T08:30:29;4.10;99.90
6256;DHT22;3161;48.794;9.784;2022-12-07T08:32:57;4.10;99.90
6256;DHT22;3161;48.794;9.784;2022-12-07T08:35:25;4.20;99.90
6256;DHT22;3161;48.794;9.784;2022-12-07T08:37:53;4.20;99.90
6256;DHT22;3161;48.794;9.784;2022-12-07T08:40:20;4.30;99.90
6256;DHT22;3161;48.794;9.784;2022-12-07T08:42:51;4.30;99.90
6256;DHT22;3161;48.794;9.784;2022-12-07T08:45:19;4.40;99.90
6256;DHT22;3161;48.794;9.784;2022-12-07T08:47:55;4.40;99.90
6256;DHT22;3161;48.794;9.784;2022-12-07T08:50:24;4.50;99.90
6256;DHT22;3161;48.794;9.784;2022-12-07T08:52:54;4.50;99.90
6256;DHT22;3161;48.794;9.784;2022-12-07T08:55:23;4.60;99.90
6256;DHT22;3161;48.794;9.784;2022-12-07T08:57:52;4.60;99.90
6256;DHT22;3161;48.794;9.784;2022-12-07T09:00:20;4.60;99.90
6256;DHT22;3161;48.794;9.784;2022-12-07T09:02:47;4.70;99.90
6256;DHT22;3161;48.794;9.784;2022-12-07T09:05:15;4.70;99.90
6256;DHT22;3161;48.794;9.784;2022-12-07T09:07:48;4.70;99.90
6256;DHT22;3161;48.794;9.784;2022-12-07T09:10:17;4.70;99.90
6256;DHT22;3161;48.794;9.784;2022-12-07T09:12:45;4.80;99.90
6256;DHT22;3161;48.794;9.784;2022-12-07T09:15:12;4.80;99.90
6256;DHT22;3161;48.794;9.784;2022-12-07T09:17:40;4.90;99.90
6256;DHT22;3161;48.794;9.784;2022-12-07T09:20:08;4.90;99.90
6256;DHT22;3161;48.794;9.784;2022-12-07T09:22:35;5.00;99.90
6256;DHT22;3161;48.794;9.784;2022-12-07T09:25:04;5.00;99.90
6256;DHT22;3161;48.794;9.784;2022-12-07T09:27:32;5.10;99.90
6256;DHT22;3161;48.794;9.784;2022-12-07T09:29:59;5.10;99.90
6256;DHT22;3161;48.794;9.784;2022-12-07T09:32:27;5.20;99.90
6256;DHT22;3161;48.794;9.784;2022-12-07T09:34:54;5.20;99.90
6256;DHT22;3161;48.794;9.784;2022-12-07T09:37:22;5.30;99.90
6256;DHT22;3161;48.794;9.784;2022-12-07T09:39:50;5.30;99.90
6256;DHT22;3161;48.794;9.784;2022-12-07T09:44:57;5.40;99.90
6256;DHT22;3161;48.794;9.784;2022-12-07T09:47:26;5.50;99.90
6256;DHT22;3161;48.794;9.784;2022-12-07T09:49:58;5.60;99.90
6256;DHT22;3161;48.794;9.784;2022-12-07T09:52:28;5.60;99.90
6256;DHT22;3161;48.794;9.784;2022-12-07T09:54:56;5.70;99.90
6256;DHT22;3161;48.794;9.784;2022-12-07T09:57:29;5.70;99.90
6256;DHT22;3161;48.794;9.784;2022-12-07T10:00:00;5.70;99.90
6256;DHT22;3161;48.794;9.784;2022-12-07T10:02:42;5.70;99.90
6256;DHT22;3161;48.794;9.784;2022-12-07T10:05:14;5.60;99.90
6256;DHT22;3161;48.794;9.784;2022-12-07T10:07:41;5.60;99.90
6256;DHT22;3161;48.794;9.784;2022-12-07T10:10:35;5.50;99.90
6256;DHT22;3161;48.794;9.784;2022-12-07T10:20:48;5.30;99.90
6256;DHT22;3161;48.794;9.784;2022-12-07T10:23:17;5.30;99.90
6256;DHT22;3161;48.794;9.784;2022-12-07T10:25:45;5.30;99.90
6256;DHT22;3161;48.794;9.784;2022-12-07T10:28:17;5.30;99.90
6256;DHT22;3161;48.794;9.784;2022-12-07T10:33:39;5.30;99.90
6256;DHT22;3161;48.794;9.784;2022-12-07T10:38:52;5.40;99.90
6256;DHT22;3161;48.794;9.784;2022-12-07T10:41:20;5.40;99.90
6256;DHT22;3161;48.794;9.784;2022-12-07T10:43:49;5.40;99.90
6256;DHT22;3161;48.794;9.784;2022-12-07T10:46:50;5.30;99.90
6256;DHT22;3161;48.794;9.784;2022-12-07T10:49:33;5.40;99.90
6256;DHT22;3161;48.794;9.784;2022-12-07T10:55:16;5.50;99.90
6256;DHT22;3161;48.794;9.784;2022-12-07T11:00:24;5.50;99.90
6256;DHT22;3161;48.794;9.784;2022-12-07T11:08:03;5.60;99.90
6256;DHT22;3161;48.794;9.784;2022-12-07T11:10:42;5.60;99.90
6256;DHT22;3161;48.794;9.784;2022-12-07T11:13:16;5.70;99.90
6256;DHT22;3161;48.794;9.784;2022-12-07T11:16:05;5.80;99.90
6256;DHT22;3161;48.794;9.784;2022-12-07T11:24:02;5.80;99.90
6256;DHT22;3161;48.794;9.784;2022-12-07T11:38:14;5.80;99.90
6256;DHT22;3161;48.794;9.784;2022-12-07T11:40:46;5.80;99.90
6256;DHT22;3161;48.794;9.784;2022-12-07T11:43:23;5.80;99.90
6256;DHT22;3161;48.794;9.784;2022-12-07T11:46:03;5.90;99.90
6256;DHT22;3161;48.794;9.784;2022-12-07T11:48:45;5.90;99.90
6256;DHT22;3161;48.794;9.784;2022-12-07T11:51:13;6.00;99.90
6256;DHT22;3161;48.794;9.784;2022-12-07T11:53:49;6.00;99.90
6256;DHT22;3161;48.794;9.784;2022-12-07T11:56:17;6.00;99.90
6256;DHT22;3161;48.794;9.784;2022-12-07T12:01:36;6.00;99.90
6256;DHT22;3161;48.794;9.784;2022-12-07T12:06:44;6.00;99.90
6256;DHT22;3161;48.794;9.784;2022-12-07T12:09:30;6.10;99.90
6256;DHT22;3161;48.794;9.784;2022-12-07T12:12:22;6.10;99.90
6256;DHT22;3161;48.794;9.784;2022-12-07T12:20:55;6.10;99.90
6256;DHT22;3161;48.794;9.784;2022-12-07T12:23:35;6.10;99.90
6256;DHT22;3161;48.794;9.784;2022-12-07T12:26:01;6.10;99.90
6256;DHT22;3161;48.794;9.784;2022-12-07T12:28:36;6.20;99.90
6256;DHT22;3161;48.794;9.784;2022-12-07T12:31:14;6.10;99.90
6256;DHT22;3161;48.794;9.784;2022-12-07T12:33:55;6.20;99.90
6256;DHT22;3161;48.794;9.784;2022-12-07T12:39:16;6.10;99.90
6256;DHT22;3161;48.794;9.784;2022-12-07T12:46:55;6.30;99.90
6256;DHT22;3161;48.794;9.784;2022-12-07T12:57:38;6.20;99.90
6256;DHT22;3161;48.794;9.784;2022-12-07T13:00:20;6.10;99.90
6256;DHT22;3161;48.794;9.784;2022-12-07T13:02:55;6.20;99.90
6256;DHT22;3161;48.794;9.784;2022-12-07T13:05:28;6.10;99.90
6256;DHT22;3161;48.794;9.784;2022-12-07T13:07:59;6.10;99.90
6256;DHT22;3161;48.794;9.784;2022-12-07T13:18:39;6.00;99.90
6256;DHT22;3161;48.794;9.784;2022-12-07T13:26:15;5.90;99.90
6256;DHT22;3161;48.794;9.784;2022-12-07T13:34:34;6.00;99.90
6256;DHT22;3161;48.794;9.784;2022-12-07T13:39:50;6.00;99.90
6256;DHT22;3161;48.794;9.784;2022-12-07T13:42:33;5.90;99.90
6256;DHT22;3161;48.794;9.784;2022-12-07T13:47:52;5.80;99.90
6256;DHT22;3161;48.794;9.784;2022-12-07T13:50:27;5.80;99.90
6256;DHT22;3161;48.794;9.784;2022-12-07T13:52:57;5.80;99.90
6256;DHT22;3161;48.794;9.784;2022-12-07T13:55:25;5.70;99.90
6256;DHT22;3161;48.794;9.784;2022-12-07T13:57:55;5.70;99.90
6256;DHT22;3161;48.794;9.784;2022-12-07T14:00:27;5.80;99.90
6256;DHT22;3161;48.794;9.784;2022-12-07T14:02:58;5.80;99.90
6256;DHT22;3161;48.794;9.784;2022-12-07T14:05:35;5.80;99.90
6256;DHT22;3161;48.794;9.784;2022-12-07T14:08:04;5.80;99.90
6256;DHT22;3161;48.794;9.784;2022-12-07T14:10:35;5.80;99.90
6256;DHT22;3161;48.794;9.784;2022-12-07T14:13:21;5.80;99.90
6256;DHT22;3161;48.794;9.784;2022-12-07T14:15:34;5.80;99.90
6256;DHT22;3161;48.794;9.784;2022-12-07T14:18:02;5.70;99.90
6256;DHT22;3161;48.794;9.784;2022-12-07T14:20:33;5.70;99.90
6256;DHT22;3161;48.794;9.784;2022-12-07T14:23:01;5.70;99.90
6256;DHT22;3161;48.794;9.784;2022-12-07T14:25:32;5.70;99.90
6256;DHT22;3161;48.794;9.784;2022-12-07T14:28:01;5.60;99.90
6256;DHT22;3161;48.794;9.784;2022-12-07T14:30:30;5.60;99.90
6256;DHT22;3161;48.794;9.784;2022-12-07T14:33:02;5.60;99.90
6256;DHT22;3161;48.794;9.784;2022-12-07T14:35:31;5.60;99.90
6256;DHT22;3161;48.794;9.784;2022-12-07T14:37:59;5.60;99.90
6256;DHT22;3161;48.794;9.784;2022-12-07T14:40:28;5.60;99.90
6256;DHT22;3161;48.794;9.784;2022-12-07T14:43:02;5.60;99.90
6256;DHT22;3161;48.794;9.784;2022-12-07T14:45:30;5.60;99.90
6256;DHT22;3161;48.794;9.784;2022-12-07T14:47:58;5.60;99.90
6256;DHT22;3161;48.794;9.784;2022-12-07T14:50:26;5.60;99.90
6256;DHT22;3161;48.794;9.784;2022-12-07T14:52:56;5.60;99.90
6256;DHT22;3161;48.794;9.784;2022-12-07T14:55:26;5.50;99.90
6256;DHT22;3161;48.794;9.784;2022-12-07T14:57:55;5.50;99.90
6256;DHT22;3161;48.794;9.784;2022-12-07T15:00:24;5.50;99.90
6256;DHT22;3161;48.794;9.784;2022-12-07T15:02:52;5.50;99.90
6256;DHT22;3161;48.794;9.784;2022-12-07T15:05:21;5.50;99.90
6256;DHT22;3161;48.794;9.784;2022-12-07T15:07:49;5.50;99.90
6256;DHT22;3161;48.794;9.784;2022-12-07T15:10:25;5.50;99.90
6256;DHT22;3161;48.794;9.784;2022-12-07T15:13:00;5.40;99.90
6256;DHT22;3161;48.794;9.784;2022-12-07T15:15:47;5.40;99.90
6256;DHT22;3161;48.794;9.784;2022-12-07T15:18:15;5.40;99.90
6256;DHT22;3161;48.794;9.784;2022-12-07T15:20:44;5.40;99.90
6256;DHT22;3161;48.794;9.784;2022-12-07T15:23:12;5.40;99.90
6256;DHT22;3161;48.794;9.784;2022-12-07T15:25:44;5.40;99.90
6256;DHT22;3161;48.794;9.784;2022-12-07T15:28:12;5.40;99.90
6256;DHT22;3161;48.794;9.784;2022-12-07T15:30:42;5.40;99.90
6256;DHT22;3161;48.794;9.784;2022-12-07T15:33:10;5.30;99.90
6256;DHT22;3161;48.794;9.784;2022-12-07T15:35:42;5.30;99.90
6256;DHT22;3161;48.794;9.784;2022-12-07T15:38:11;5.20;99.90
6256;DHT22;3161;48.794;9.784;2022-12-07T15:40:39;5.20;99.90
6256;DHT22;3161;48.794;9.784;2022-12-07T15:43:08;5.10;99.90
6256;DHT22;3161;48.794;9.784;2022-12-07T15:45:38;5.10;99.90
6256;DHT22;3161;48.794;9.784;2022-12-07T15:48:05;5.00;99.90
6256;DHT22;3161;48.794;9.784;2022-12-07T15:50:33;5.00;99.90
6256;DHT22;3161;48.794;9.784;2022-12-07T15:53:00;5.00;99.90
6256;DHT22;3161;48.794;9.784;2022-12-07T15:55:28;5.00;99.90
6256;DHT22;3161;48.794;9.784;2022-12-07T15:57:55;5.00;99.90
6256;DHT22;3161;48.794;9.784;2022-12-07T16:00:23;5.00;99.90
6256;DHT22;3161;48.794;9.784;2022-12-07T16:02:50;5.00;99.90
6256;DHT22;3161;48.794;9.784;2022-12-07T16:05:18;5.10;99.90
6256;DHT22;3161;48.794;9.784;2022-12-07T16:07:46;5.10;99.90
6256;DHT22;3161;48.794;9.784;2022-12-07T16:10:13;5.00;99.90
6256;DHT22;3161;48.794;9.784;2022-12-07T16:12:41;5.10;99.90
6256;DHT22;3161;48.794;9.784;2022-12-07T16:15:09;5.10;99.90
6256;DHT22;3161;48.794;9.784;2022-12-07T16:17:37;5.10;99.90
6256;DHT22;3161;48.794;9.784;2022-12-07T16:20:05;5.00;99.90
6256;DHT22;3161;48.794;9.784;2022-12-07T16:22:34;5.10;99.90
6256;DHT22;3161;48.794;9.784;2022-12-07T16:25:02;5.00;99.90
6256;DHT22;3161;48.794;9.784;2022-12-07T16:27:30;5.00;99.90
6256;DHT22;3161;48.794;9.784;2022-12-07T16:29:57;5.00;99.90
6256;DHT22;3161;48.794;9.784;2022-12-07T16:32:25;4.90;99.90
6256;DHT22;3161;48.794;9.784;2022-12-07T16:34:53;4.90;99.90
6256;DHT22;3161;48.794;9.784;2022-12-07T16:37:20;4.90;99.90
6256;DHT22;3161;48.794;9.784;2022-12-07T16:39:48;4.90;99.90
6256;DHT22;3161;48.794;9.784;2022-12-07T16:42:15;4.80;99.90
6256;DHT22;3161;48.794;9.784;2022-12-07T16:44:43;4.80;99.90
6256;DHT22;3161;48.794;9.784;2022-12-07T16:47:10;4.80;99.90
6256;DHT22;3161;48.794;9.784;2022-12-07T16:49:38;4.70;99.90
6256;DHT22;3161;48.794;9.784;2022-12-07T16:52:05;4.70;99.90
6256;DHT22;3161;48.794;9.784;2022-12-07T16:54:33;4.70;99.90
6256;DHT22;3161;48.794;9.784;2022-12-07T16:57:00;4.70;99.90
6256;DHT22;3161;48.794;9.784;2022-12-07T16:59:28;4.70;99.90
6256;DHT22;3161;48.794;9.784;2022-12-07T17:01:55;4.60;99.90
6256;DHT22;3161;48.794;9.784;2022-12-07T17:04:23;4.60;99.90
6256;DHT22;3161;48.794;9.784;2022-12-07T17:06:50;4.60;99.90
6256;DHT22;3161;48.794;9.784;2022-12-07T17:09:18;4.60;99.90
6256;DHT22;3161;48.794;9.784;2022-12-07T17:11:46;4.60;99.90
6256;DHT22;3161;48.794;9.784;2022-12-07T17:14:13;4.60;99.90
6256;DHT22;3161;48.794;9.784;2022-12-07T17:16:59;4.60;99.90
6256;DHT22;3161;48.794;9.784;2022-12-07T17:19:26;4.70;99.90
6256;DHT22;3161;48.794;9.784;2022-12-07T17:21:54;4.70;99.90
6256;DHT22;3161;48.794;9.784;2022-12-07T17:24:22;4.70;99.90
6256;DHT22;3161;48.794;9.784;2022-12-07T17:26:49;4.70;99.90
6256;DHT22;3161;48.794;9.784;2022-12-07T17:29:18;4.70;99.90
6256;DHT22;3161;48.794;9.784;2022-12-07T17:31:47;4.70;99.90
6256;DHT22;3161;48.794;9.784;2022-12-07T17:34:15;4.60;99.90
6256;DHT22;3161;48.794;9.784;2022-12-07T17:36:43;4.70;99.90
6256;DHT22;3161;48.794;9.784;2022-12-07T17:39:14;4.70;99.90
6256;DHT22;3161;48.794;9.784;2022-12-07T17:41:42;4.70;99.90
6256;DHT22;3161;48.794;9.784;2022-12-07T17:44:28;4.60;99.90
6256;DHT22;3161;48.794;9.784;2022-12-07T17:46:56;4.60;99.90
6256;DHT22;3161;48.794;9.784;2022-12-07T17:49:26;4.60;99.90
6256;DHT22;3161;48.794;9.784;2022-12-07T17:51:54;4.60;99.90
6256;DHT22;3161;48.794;9.784;2022-12-07T17:54:40;4.50;99.90
6256;DHT22;3161;48.794;9.784;2022-12-07T17:57:08;4.50;99.90
6256;DHT22;3161;48.794;9.784;2022-12-07T17:59:35;4.50;99.90
6256;DHT22;3161;48.794;9.784;2022-12-07T18:02:03;4.50;99.90
6256;DHT22;3161;48.794;9.784;2022-12-07T18:04:31;4.40;99.90
6256;DHT22;3161;48.794;9.784;2022-12-07T18:06:59;4.40;99.90
6256;DHT22;3161;48.794;9.784;2022-12-07T18:09:26;4.40;99.90
6256;DHT22;3161;48.794;9.784;2022-12-07T18:11:54;4.40;99.90
6256;DHT22;3161;48.794;9.784;2022-12-07T18:14:22;4.40;99.90
6256;DHT22;3161;48.794;9.784;2022-12-07T18:16:49;4.40;99.90
6256;DHT22;3161;48.794;9.784;2022-12-07T18:19:17;4.50;99.90
6256;DHT22;3161;48.794;9.784;2022-12-07T18:21:45;4.50;99.90
6256;DHT22;3161;48.794;9.784;2022-12-07T18:24:14;4.50;99.90
6256;DHT22;3161;48.794;9.784;2022-12-07T18:26:43;4.50;99.90
6256;DHT22;3161;48.794;9.784;2022-12-07T18:29:17;4.50;99.90
6256;DHT22;3161;48.794;9.784;2022-12-07T18:31:46;4.50;99.90
6256;DHT22;3161;48.794;9.784;2022-12-07T18:34:16;4.50;99.90
6256;DHT22;3161;48.794;9.784;2022-12-07T18:36:45;4.50;99.90
6256;DHT22;3161;48.794;9.784;2022-12-07T18:39:15;4.50;99.90